Time;durP1;ratioP1;P1;durP2;ratioP2;P2;SDS_P1;SDS_P2;PMS_P1;PMS_P2;Temp;Humidity;BMP_temperature;BMP_pressure;BME280_temperature;BME280_humidity;BME280_pressure;Samples;Min_cycle;Max_cycle;Signal;HPM_P1;HPM_P2
2022/09/24 00:00:51;;;;;;;18.80;13.23;;;12.30;85.90;;;;;;4979743;28;20288;-88
2022/09/24 00:03:18;;;;;;;18.40;15.17;;;12.40;85.80;;;;;;4979819;28;20224;-87
2022/09/24 00:05:45;;;;;;;21.50;15.57;;;12.50;85.70;;;;;;4980029;28;20205;-89
2022/09/24 00:08:12;;;;;;;20.60;15.20;;;12.50;85.50;;;;;;4997086;28;20166;-88
2022/09/24 00:10:38;;;;;;;21.73;14.70;;;12.50;85.20;;;;;;4996900;28;20182;-88
2022/09/24 00:13:04;;;;;;;18.30;14.80;;;12.50;84.80;;;;;;4979414;28;20208;-88
2022/09/24 00:15:30;;;;;;;17.23;13.80;;;12.60;84.20;;;;;;4979331;28;20182;-89
2022/09/24 00:17:58;;;;;;;17.33;13.90;;;12.80;83.90;;;;;;4979371;28;20185;-88
2022/09/24 00:20:24;;;;;;;15.87;13.57;;;12.70;83.80;;;;;;4979236;28;20206;-88
2022/09/24 00:22:49;;;;;;;16.00;13.07;;;12.70;83.80;;;;;;4999452;28;20201;-88
2022/09/24 00:27:59;;;;;;;18.17;14.20;;;12.80;83.80;;;;;;4996508;28;20253;-90
2022/09/24 00:30:24;;;;;;;16.37;12.73;;;12.80;83.70;;;;;;4979091;28;20272;-91
2022/09/24 00:32:50;;;;;;;18.10;13.43;;;12.80;83.60;;;;;;4996382;28;20624;-89
2022/09/24 00:35:17;;;;;;;15.67;12.90;;;12.80;83.70;;;;;;4996711;28;20707;-89
2022/09/24 00:37:43;;;;;;;16.70;13.57;;;12.80;83.90;;;;;;4997069;28;20190;-89
2022/09/24 00:40:09;;;;;;;19.70;13.47;;;12.80;84.10;;;;;;4978909;28;20285;-90
2022/09/24 00:42:35;;;;;;;17.63;13.83;;;12.80;84.20;;;;;;4996302;28;20301;-89
2022/09/24 00:45:03;;;;;;;20.83;14.43;;;12.80;84.40;;;;;;4978817;28;20225;-87
2022/09/24 00:47:40;;;;;;;20.20;14.17;;;12.80;84.40;;;;;;4978860;28;20206;-89
2022/09/24 00:50:26;;;;;;;18.50;15.13;;;12.80;84.50;;;;;;4996300;28;20170;-90
2022/09/24 00:52:57;;;;;;;17.60;14.97;;;12.80;84.40;;;;;;4996308;28;20221;-89
2022/09/24 00:55:24;;;;;;;20.80;15.43;;;12.80;84.50;;;;;;4996326;28;20244;-89
2022/09/24 00:57:55;;;;;;;20.20;15.50;;;12.80;84.60;;;;;;4978769;28;20175;-89
2022/09/24 01:00:21;;;;;;;22.90;16.73;;;12.70;84.80;;;;;;4996046;28;20190;-89
2022/09/24 01:02:52;;;;;;;19.83;16.30;;;12.80;84.80;;;;;;4978362;28;20304;-90
2022/09/24 01:05:18;;;;;;;21.50;16.50;;;12.80;84.60;;;;;;4979115;28;20174;-89
2022/09/24 01:07:46;;;;;;;23.07;16.67;;;12.80;84.80;;;;;;4981765;28;20212;-89
2022/09/24 01:10:46;;;;;;;19.53;17.13;;;12.80;84.80;;;;;;4978407;28;20182;-88
2022/09/24 01:13:09;;;;;;;19.57;16.37;;;12.80;84.90;;;;;;4995478;28;20202;-88
2022/09/24 01:15:42;;;;;;;21.80;17.83;;;12.70;84.90;;;;;;4995589;28;20194;-87
2022/09/24 01:18:33;;;;;;;19.00;16.97;;;12.80;85.00;;;;;;4978463;28;20660;-90
2022/09/24 01:21:24;;;;;;;25.83;18.43;;;12.80;85.10;;;;;;4978529;28;20202;-90
2022/09/24 01:24:04;;;;;;;21.70;18.93;;;12.80;85.10;;;;;;4978072;28;20167;-90
2022/09/24 01:26:36;;;;;;;26.70;18.80;;;12.70;85.10;;;;;;4978152;28;20162;-90
2022/09/24 01:29:27;;;;;;;26.03;19.17;;;12.70;85.40;;;;;;4978066;28;20177;-90
2022/09/24 01:32:05;;;;;;;22.87;19.13;;;12.70;85.30;;;;;;4977879;28;20201;-91
2022/09/24 01:34:39;;;;;;;26.87;19.93;;;12.80;85.20;;;;;;4977978;28;20228;-91
2022/09/24 01:37:05;;;;;;;22.43;18.43;;;12.80;85.10;;;;;;4977828;28;20165;-90
2022/09/24 01:39:32;;;;;;;23.67;18.83;;;12.80;85.20;;;;;;4994543;28;20688;-91
2022/09/24 01:41:57;;;;;;;31.27;18.40;;;12.80;85.10;;;;;;4977699;28;20337;-90
2022/09/24 01:44:24;;;;;;;22.77;18.20;;;12.80;85.20;;;;;;4977854;28;20261;-91
2022/09/24 01:46:49;;;;;;;23.90;19.23;;;12.80;85.40;;;;;;4995009;28;20702;-89
2022/09/24 01:49:15;;;;;;;20.10;18.00;;;12.80;85.50;;;;;;4977633;28;20178;-91
2022/09/24 01:51:48;;;;;;;20.87;16.60;;;12.70;85.60;;;;;;4977572;28;20540;-90
2022/09/24 01:54:31;;;;;;;25.80;18.20;;;12.70;85.70;;;;;;4977520;28;20261;-91
2022/09/24 01:57:18;;;;;;;23.50;16.90;;;12.70;85.70;;;;;;4977480;28;20170;-91
2022/09/24 01:59:54;;;;;;;21.67;19.23;;;12.70;85.90;;;;;;4994739;28;20186;-91
2022/09/24 02:02:42;;;;;;;26.30;21.10;;;12.70;86.00;;;;;;4977209;28;20210;-91
2022/09/24 02:05:31;;;;;;;25.33;19.77;;;12.70;86.30;;;;;;4977377;28;20538;-91
2022/09/24 02:08:25;;;;;;;28.73;20.30;;;12.70;86.40;;;;;;4977338;28;20163;-91
2022/09/24 02:11:17;;;;;;;25.47;20.93;;;12.70;86.70;;;;;;4949330;28;20640;-90
2022/09/24 02:13:53;;;;;;;24.50;21.37;;;12.60;87.00;;;;;;4977172;28;20181;-91
2022/09/24 02:16:23;;;;;;;27.97;20.83;;;12.50;87.50;;;;;;4977308;28;20566;-90
2022/09/24 02:18:53;;;;;;;25.10;21.37;;;12.50;87.60;;;;;;4977122;28;20232;-90
2022/09/24 02:21:21;;;;;;;23.87;21.27;;;12.50;87.60;;;;;;4977712;28;20210;-91
2022/09/24 02:23:54;;;;;;;30.37;22.13;;;12.40;87.80;;;;;;4976987;28;20544;-91
2022/09/24 02:26:19;;;;;;;24.07;21.00;;;12.40;88.10;;;;;;4976949;28;20655;-91
2022/09/24 02:28:45;;;;;;;26.27;21.40;;;12.40;88.40;;;;;;4994348;28;20175;-90
2022/09/24 02:31:16;;;;;;;27.13;22.43;;;12.30;88.60;;;;;;4976831;28;20208;-90
2022/09/24 02:36:32;;;;;;;25.57;21.70;;;12.30;89.00;;;;;;4994741;28;20173;-91
2022/09/24 02:38:58;;;;;;;26.40;22.13;;;12.30;89.00;;;;;;4976965;28;20178;-91
2022/09/24 02:41:24;;;;;;;27.10;21.13;;;12.20;89.20;;;;;;4976759;28;20209;-91
2022/09/24 02:43:51;;;;;;;28.53;21.77;;;12.20;89.40;;;;;;4976801;28;20550;-91
2022/09/24 02:46:17;;;;;;;25.63;21.60;;;12.20;89.50;;;;;;4976866;28;20169;-91
2022/09/24 02:48:42;;;;;;;27.40;22.97;;;12.20;89.60;;;;;;4976837;28;20645;-91
2022/09/24 02:51:08;;;;;;;29.10;24.60;;;12.10;89.80;;;;;;4975597;28;20672;-91
2022/09/24 02:53:34;;;;;;;26.40;23.60;;;12.10;90.00;;;;;;4976939;28;20652;-91
2022/09/24 02:56:00;;;;;;;27.33;23.30;;;12.10;90.10;;;;;;4976631;28;20273;-91
2022/09/24 02:58:26;;;;;;;26.10;22.03;;;12.20;90.20;;;;;;4976564;28;20539;-91
2022/09/24 03:00:53;;;;;;;30.37;22.80;;;12.30;90.20;;;;;;4976263;28;20201;-92
2022/09/24 03:03:23;;;;;;;22.97;20.50;;;12.30;90.10;;;;;;4976634;28;20655;-91
2022/09/24 03:05:51;;;;;;;24.73;20.80;;;12.30;90.00;;;;;;4977470;28;20626;-92
2022/09/24 03:08:18;;;;;;;24.97;20.70;;;12.30;90.00;;;;;;4993978;28;20258;-91
2022/09/24 03:10:43;;;;;;;26.33;22.47;;;12.30;89.90;;;;;;4976734;28;20174;-92
2022/09/24 03:13:10;;;;;;;26.10;22.47;;;12.30;89.80;;;;;;4977575;28;20185;-91
2022/09/24 03:15:35;;;;;;;28.23;22.40;;;12.30;89.90;;;;;;4976909;28;20626;-92
2022/09/24 03:18:02;;;;;;;34.67;22.30;;;12.30;89.90;;;;;;4976988;28;20174;-92
2022/09/24 03:20:28;;;;;;;26.07;21.63;;;12.40;89.90;;;;;;4978109;28;20640;-92
2022/09/24 03:22:53;;;;;;;25.87;20.30;;;12.50;89.80;;;;;;4976716;28;20248;-92
2022/09/24 03:25:19;;;;;;;25.63;21.23;;;12.50;89.80;;;;;;4976704;28;20170;-91
2022/09/24 03:27:45;;;;;;;24.07;20.93;;;12.50;89.60;;;;;;4976943;28;20558;-92
2022/09/24 03:32:56;;;;;;;23.83;21.23;;;12.40;89.60;;;;;;4994503;28;20687;-91
2022/09/24 03:35:22;;;;;;;24.50;21.90;;;12.50;89.60;;;;;;4976521;28;20178;-92
2022/09/24 03:37:47;;;;;;;25.07;21.00;;;12.40;89.40;;;;;;4976513;28;20178;-92
2022/09/24 03:40:13;;;;;;;28.47;22.87;;;12.50;89.50;;;;;;4976353;28;20202;-91
2022/09/24 03:42:38;;;;;;;25.73;21.97;;;12.50;89.40;;;;;;4976491;28;20201;-92
2022/09/24 03:45:05;;;;;;;25.20;21.07;;;12.50;89.40;;;;;;4976769;28;20270;-92
2022/09/24 03:47:31;;;;;;;30.33;23.40;;;12.50;89.30;;;;;;4976350;28;20174;-92
2022/09/24 03:49:57;;;;;;;25.50;22.77;;;12.50;89.20;;;;;;4976521;28;20320;-92
2022/09/24 03:52:23;;;;;;;28.40;24.23;;;12.50;89.20;;;;;;4976318;28;20198;-92
2022/09/24 03:54:49;;;;;;;28.07;23.73;;;12.50;89.20;;;;;;4976444;28;20185;-92
2022/09/24 03:57:15;;;;;;;31.47;24.17;;;12.50;89.10;;;;;;4976528;28;20177;-92
2022/09/24 03:59:41;;;;;;;27.17;24.00;;;12.50;89.20;;;;;;4977210;28;20198;-91
2022/09/24 04:02:08;;;;;;;30.83;25.43;;;12.50;89.20;;;;;;4978031;28;20214;-91
2022/09/24 04:04:33;;;;;;;32.87;25.33;;;12.50;89.10;;;;;;4980139;28;20177;-92
2022/09/24 04:06:59;;;;;;;31.37;25.77;;;12.50;89.10;;;;;;4979932;28;20177;-92
2022/09/24 04:09:25;;;;;;;29.03;25.33;;;12.50;89.10;;;;;;4997438;28;20249;-92
2022/09/24 04:11:53;;;;;;;31.50;25.43;;;12.50;89.10;;;;;;4980098;28;20708;-92
2022/09/24 04:14:19;;;;;;;31.60;27.23;;;12.40;89.00;;;;;;4979850;28;20174;-92
2022/09/24 04:16:45;;;;;;;26.97;24.07;;;12.40;89.20;;;;;;4979544;28;20201;-92
2022/09/24 04:19:12;;;;;;;27.90;24.90;;;12.50;89.20;;;;;;4979613;28;20229;-91
2022/09/24 04:21:38;;;;;;;32.30;26.00;;;12.40;89.20;;;;;;4980146;28;20281;-91
2022/09/24 04:24:04;;;;;;;28.63;24.47;;;12.40;89.20;;;;;;4979662;28;20713;-92
2022/09/24 04:26:29;;;;;;;30.03;24.87;;;12.40;89.10;;;;;;4979634;28;20182;-92
2022/09/24 04:28:58;;;;;;;30.90;24.53;;;12.40;89.20;;;;;;4980031;28;20193;-92
2022/09/24 04:31:25;;;;;;;27.33;23.97;;;12.40;89.20;;;;;;4979423;28;20209;-92
2022/09/24 04:33:51;;;;;;;27.17;23.40;;;12.30;89.30;;;;;;4979448;28;20182;-92
2022/09/24 04:36:17;;;;;;;26.47;23.47;;;12.30;89.40;;;;;;4979173;28;20188;-91
2022/09/24 04:38:45;;;;;;;34.83;26.73;;;12.30;89.40;;;;;;4979118;28;20182;-91
2022/09/24 04:41:11;;;;;;;29.00;24.80;;;12.40;89.50;;;;;;4979194;28;20216;-91
2022/09/24 04:43:37;;;;;;;33.77;25.43;;;12.30;89.50;;;;;;4978858;28;20174;-91
2022/09/24 04:46:03;;;;;;;29.63;25.30;;;12.30;89.70;;;;;;4979232;28;20629;-91
2022/09/24 04:48:29;;;;;;;35.00;29.50;;;12.30;89.80;;;;;;4996620;28;20170;-92
2022/09/24 04:50:55;;;;;;;35.47;29.90;;;12.30;89.80;;;;;;4996147;28;20256;-91
2022/09/24 04:53:22;;;;;;;35.80;29.97;;;12.30;90.00;;;;;;4978849;28;20218;-91
2022/09/24 04:55:47;;;;;;;33.57;29.90;;;12.30;90.10;;;;;;4978852;28;20178;-91
2022/09/24 04:58:13;;;;;;;32.37;28.83;;;12.30;90.10;;;;;;4995949;28;20551;-91
2022/09/24 05:00:39;;;;;;;33.13;28.43;;;12.20;90.20;;;;;;4978471;28;20210;-91
2022/09/24 05:03:05;;;;;;;37.37;29.93;;;12.20;90.30;;;;;;4978556;28;20210;-92
2022/09/24 05:05:32;;;;;;;31.90;28.30;;;12.30;90.30;;;;;;4978544;28;20181;-92
2022/09/24 05:07:58;;;;;;;36.40;29.33;;;12.20;90.30;;;;;;4978526;28;20179;-91
2022/09/24 05:10:25;;;;;;;32.50;28.80;;;12.20;90.40;;;;;;4978973;28;20652;-91
2022/09/24 05:12:51;;;;;;;34.67;28.97;;;12.30;90.40;;;;;;4994730;28;20201;-91
2022/09/24 05:15:20;;;;;;;38.37;29.73;;;12.20;90.50;;;;;;4978336;28;20182;-91
2022/09/24 05:17:46;;;;;;;35.17;29.17;;;12.20;90.60;;;;;;4978640;28;20214;-92
2022/09/24 05:20:13;;;;;;;33.83;29.70;;;12.20;90.70;;;;;;4978474;28;20246;-92
2022/09/24 05:22:43;;;;;;;33.93;28.83;;;12.30;90.70;;;;;;4978359;28;20194;-91
2022/09/24 05:25:10;;;;;;;33.00;28.80;;;12.30;90.70;;;;;;4978668;28;20170;-91
2022/09/24 05:27:36;;;;;;;33.33;29.53;;;12.30;90.70;;;;;;4978462;28;20644;-92
2022/09/24 05:30:02;;;;;;;39.03;30.70;;;12.30;90.80;;;;;;4978512;28;20181;-92
2022/09/24 05:32:27;;;;;;;37.97;30.77;;;12.30;90.70;;;;;;4978039;28;20198;-91
2022/09/24 05:34:53;;;;;;;35.00;30.47;;;12.30;90.70;;;;;;4978133;28;20233;-92
2022/09/24 05:37:19;;;;;;;35.13;29.50;;;12.30;90.70;;;;;;4995467;28;20186;-94
2022/09/24 05:39:44;;;;;;;35.37;29.27;;;12.30;90.80;;;;;;4978361;28;20698;-92
2022/09/24 05:42:14;;;;;;;34.97;29.93;;;12.30;90.80;;;;;;4978123;28;20198;-91
2022/09/24 05:44:40;;;;;;;35.80;29.77;;;12.30;90.80;;;;;;4978368;28;20189;-92
2022/09/24 05:47:05;;;;;;;34.47;28.67;;;12.30;90.90;;;;;;4978147;28;20329;-91
2022/09/24 05:49:31;;;;;;;37.40;28.73;;;12.30;90.90;;;;;;4977824;28;20716;-91
2022/09/24 05:51:56;;;;;;;37.00;29.43;;;12.30;91.00;;;;;;4977472;28;20360;-91
2022/09/24 05:54:22;;;;;;;34.87;28.23;;;12.30;90.90;;;;;;4995369;28;20174;-92
2022/09/24 05:56:48;;;;;;;31.90;26.80;;;12.30;91.10;;;;;;4977907;28;20178;-92
2022/09/24 05:59:14;;;;;;;35.90;28.07;;;12.30;91.10;;;;;;4995404;28;20637;-92
2022/09/24 06:01:39;;;;;;;35.50;28.57;;;12.20;91.20;;;;;;4978049;28;20222;-91
2022/09/24 06:04:05;;;;;;;37.27;30.60;;;12.20;91.30;;;;;;4994714;28;20200;-91
2022/09/24 06:06:31;;;;;;;41.73;31.17;;;12.20;91.40;;;;;;4977410;28;20213;-91
2022/09/24 06:08:57;;;;;;;38.93;30.63;;;12.20;91.40;;;;;;4977344;28;20212;-91
2022/09/24 06:11:22;;;;;;;39.00;29.23;;;12.20;91.50;;;;;;4977512;28;20672;-91
2022/09/24 06:16:23;;;;;;;35.30;29.17;;;12.20;91.60;;;;;;1235971;22;21960;-92
2022/09/24 06:18:49;;;;;;;36.20;29.40;;;12.20;91.70;;;;;;5014525;28;20177;-92
2022/09/24 06:21:18;;;;;;;35.27;29.17;;;12.20;91.80;;;;;;5014265;28;20277;-90
2022/09/24 06:23:44;;;;;;;34.23;27.87;;;12.20;91.80;;;;;;5015675;28;20169;-91
2022/09/24 06:26:11;;;;;;;39.13;29.57;;;12.20;91.90;;;;;;5014291;28;20268;-92
2022/09/24 06:28:37;;;;;;;36.03;29.60;;;12.20;91.90;;;;;;5014866;28;20177;-91
2022/09/24 06:31:04;;;;;;;34.30;27.27;;;12.20;92.00;;;;;;5015812;28;20177;-91
2022/09/24 06:33:31;;;;;;;35.17;27.57;;;12.20;92.10;;;;;;5013354;28;20268;-92
2022/09/24 06:35:59;;;;;;;35.97;27.40;;;12.20;92.10;;;;;;5013249;28;20258;-91
2022/09/24 06:38:25;;;;;;;38.23;27.60;;;12.30;92.10;;;;;;5013337;28;20264;-91
2022/09/24 06:40:51;;;;;;;38.23;28.00;;;12.30;92.20;;;;;;5012964;28;20201;-92
2022/09/24 06:43:17;;;;;;;38.17;26.27;;;12.20;92.20;;;;;;5013131;28;20169;-91
2022/09/24 06:45:43;;;;;;;35.43;24.93;;;12.20;92.20;;;;;;5013053;28;20259;-90
2022/09/24 06:48:11;;;;;;;35.07;25.57;;;12.20;92.20;;;;;;5012930;28;20631;-91
2022/09/24 06:50:39;;;;;;;29.73;23.47;;;12.20;92.30;;;;;;5014055;28;20201;-91
2022/09/24 06:53:06;;;;;;;31.50;24.30;;;12.20;92.20;;;;;;5012533;28;20616;-91
2022/09/24 06:55:33;;;;;;;29.57;23.13;;;12.30;92.30;;;;;;5013935;28;20267;-91
2022/09/24 06:58:18;;;;;;;33.00;23.20;;;12.30;92.30;;;;;;5012802;28;20189;-91
2022/09/24 07:01:01;;;;;;;31.73;23.27;;;12.30;92.30;;;;;;5013636;28;20197;-91
2022/09/24 07:03:27;;;;;;;30.13;23.47;;;12.20;92.30;;;;;;5013693;28;20169;-91
2022/09/24 07:05:53;;;;;;;34.47;23.67;;;12.20;92.40;;;;;;5013025;28;20181;-91
2022/09/24 07:08:19;;;;;;;29.43;23.37;;;12.20;92.40;;;;;;5012999;28;20193;-90
2022/09/24 07:10:48;;;;;;;33.40;24.20;;;12.20;92.50;;;;;;5012399;28;20181;-90
2022/09/24 07:13:14;;;;;;;31.80;23.17;;;12.20;92.50;;;;;;5013687;28;20177;-89
2022/09/24 07:15:41;;;;;;;30.43;24.33;;;12.20;92.60;;;;;;5014196;28;20185;-91
2022/09/24 07:18:07;;;;;;;32.50;23.23;;;12.30;92.70;;;;;;5013479;28;20200;-92
2022/09/24 07:20:35;;;;;;;29.63;23.40;;;12.30;92.70;;;;;;5014185;28;20256;-89
2022/09/24 07:23:04;;;;;;;30.27;24.40;;;12.20;92.70;;;;;;5014139;28;20628;-92
2022/09/24 07:25:31;;;;;;;38.03;26.13;;;12.30;92.80;;;;;;5016772;28;20196;-92
2022/09/24 07:28:03;;;;;;;32.53;24.03;;;12.30;92.80;;;;;;5018184;28;20178;-91
2022/09/24 07:30:29;;;;;;;30.73;23.07;;;12.30;92.80;;;;;;5013085;28;20180;-93
2022/09/24 07:32:55;;;;;;;32.20;25.47;;;12.30;92.90;;;;;;5012749;28;20201;-92
2022/09/24 07:35:21;;;;;;;36.87;26.57;;;12.30;92.90;;;;;;5013664;28;20634;-92
2022/09/24 07:37:47;;;;;;;32.17;24.70;;;12.30;93.00;;;;;;5017338;28;20181;-91
2022/09/24 07:40:12;;;;;;;34.03;25.10;;;12.30;93.00;;;;;;5016203;28;20215;-90
2022/09/24 07:42:45;;;;;;;37.20;25.87;;;12.40;93.00;;;;;;5017253;28;20189;-91
2022/09/24 07:45:12;;;;;;;30.60;24.10;;;12.30;93.00;;;;;;5016252;28;20253;-91
2022/09/24 07:47:38;;;;;;;37.37;26.53;;;12.40;93.00;;;;;;5017331;28;20173;-91
2022/09/24 07:50:04;;;;;;;34.83;25.53;;;12.40;93.00;;;;;;5018677;28;20602;-93
2022/09/24 07:52:29;;;;;;;37.90;26.20;;;12.40;93.00;;;;;;5017689;28;20580;-92
2022/09/24 07:54:55;;;;;;;34.77;26.20;;;12.40;93.00;;;;;;5017781;28;20188;-93
2022/09/24 07:57:20;;;;;;;36.40;26.03;;;12.50;93.10;;;;;;5017186;28;20169;-92
2022/09/24 07:59:46;;;;;;;32.50;26.13;;;12.40;93.00;;;;;;5017748;28;20203;-92
2022/09/24 08:02:15;;;;;;;36.90;27.20;;;12.40;93.00;;;;;;5017023;28;20201;-92
2022/09/24 08:04:41;;;;;;;37.43;27.70;;;12.40;93.20;;;;;;5017497;28;20186;-92
2022/09/24 08:07:06;;;;;;;34.97;27.50;;;12.50;93.20;;;;;;5016943;28;20276;-93
2022/09/24 08:09:32;;;;;;;37.37;27.33;;;12.50;93.20;;;;;;5016995;28;20268;-92
2022/09/24 08:11:58;;;;;;;38.83;27.47;;;12.60;93.20;;;;;;5016819;28;20224;-94
2022/09/24 08:14:23;;;;;;;36.17;27.77;;;12.50;93.10;;;;;;5018475;28;20173;-93
2022/09/24 08:16:49;;;;;;;35.97;27.93;;;12.60;93.20;;;;;;5015922;28;20189;-92
2022/09/24 08:19:15;;;;;;;36.50;27.13;;;12.50;93.10;;;;;;5016075;28;20181;-90
2022/09/24 08:21:41;;;;;;;40.13;29.20;;;12.40;93.10;;;;;;5017576;28;20695;-91
2022/09/24 08:24:07;;;;;;;37.87;29.90;;;12.50;93.20;;;;;;5016706;28;20227;-92
2022/09/24 08:26:32;;;;;;;44.17;31.43;;;12.60;93.30;;;;;;5018661;28;20260;-93
2022/09/24 08:28:58;;;;;;;35.37;27.87;;;12.70;93.30;;;;;;5018830;28;20173;-93
2022/09/24 08:31:23;;;;;;;39.27;31.13;;;12.70;93.30;;;;;;5018478;28;20710;-93
2022/09/24 08:33:49;;;;;;;38.47;29.23;;;12.70;93.30;;;;;;5017879;28;20189;-92
2022/09/24 08:36:16;;;;;;;45.37;32.73;;;12.70;93.20;;;;;;5017889;28;20181;-92
2022/09/24 08:38:41;;;;;;;40.60;30.63;;;12.60;93.20;;;;;;5016517;28;20184;-92
2022/09/24 08:41:10;;;;;;;42.97;32.37;;;12.70;93.20;;;;;;5018067;28;20205;-93
2022/09/24 08:43:54;;;;;;;49.17;34.13;;;12.80;93.30;;;;;;5015720;28;20219;-92
2022/09/24 08:49:34;;;;;;;41.80;33.53;;;12.80;93.20;;;;;;5017139;28;20181;-92
2022/09/24 08:52:26;;;;;;;47.27;34.03;;;12.90;93.30;;;;;;5015868;28;20193;-92
2022/09/24 08:54:53;;;;;;;42.67;32.63;;;13.00;93.30;;;;;;5015793;28;20181;-93
2022/09/24 08:57:20;;;;;;;44.90;33.03;;;13.10;93.20;;;;;;5018346;28;20228;-93
2022/09/24 08:59:51;;;;;;;43.80;32.57;;;13.10;93.30;;;;;;5019163;28;20271;-92
2022/09/24 09:03:00;;;;;;;41.73;33.43;;;13.10;93.10;;;;;;5017104;28;20197;-90
2022/09/24 09:05:50;;;;;;;44.73;32.90;;;13.10;93.00;;;;;;5015970;28;20165;-90
2022/09/24 09:08:22;;;;;;;40.50;31.63;;;13.20;93.10;;;;;;5014547;28;20173;-90
2022/09/24 09:10:51;;;;;;;39.93;31.53;;;13.20;93.10;;;;;;5016868;28;20646;-91
2022/09/24 09:13:29;;;;;;;47.80;32.97;;;13.30;93.00;;;;;;5014310;28;20177;-92
2022/09/24 09:16:05;;;;;;;41.20;32.23;;;13.30;93.00;;;;;;5015137;28;20603;-92
2022/09/24 09:18:42;;;;;;;40.00;31.80;;;13.30;92.90;;;;;;5014672;28;20287;-92
2022/09/24 09:21:37;;;;;;;40.13;31.90;;;13.30;92.90;;;;;;5015790;28;20220;-90
2022/09/24 09:24:04;;;;;;;42.73;32.60;;;13.30;93.00;;;;;;5013951;28;20171;-89
2022/09/24 09:26:30;;;;;;;43.43;31.30;;;13.50;93.00;;;;;;5016107;28;20178;-92
2022/09/24 09:29:01;;;;;;;37.83;30.17;;;13.30;92.70;;;;;;5015314;28;20674;-92
2022/09/24 09:31:42;;;;;;;39.77;29.63;;;13.40;92.80;;;;;;5014186;28;20197;-92
2022/09/24 09:34:33;;;;;;;38.40;30.90;;;13.50;92.70;;;;;;5014711;28;20558;-92
2022/09/24 09:37:28;;;;;;;43.20;31.37;;;13.50;92.60;;;;;;5015649;28;20170;-92
2022/09/24 09:40:15;;;;;;;37.90;30.87;;;13.50;92.70;;;;;;5014849;28;20197;-92
2022/09/24 09:42:43;;;;;;;44.83;31.60;;;13.60;92.70;;;;;;5013597;28;20197;-90
2022/09/24 09:45:33;;;;;;;37.47;30.80;;;13.60;92.60;;;;;;5013708;28;20176;-91
2022/09/24 09:48:01;;;;;;;37.23;28.50;;;13.60;92.60;;;;;;5013470;28;20173;-92
2022/09/24 09:50:39;;;;;;;37.77;30.03;;;13.70;92.50;;;;;;5013579;28;20205;-92
2022/09/24 09:53:05;;;;;;;38.73;30.10;;;13.60;92.40;;;;;;5013455;28;20553;-91
2022/09/24 09:55:36;;;;;;;40.73;29.87;;;13.70;92.30;;;;;;5014287;28;20183;-92
2022/09/24 09:58:30;;;;;;;37.37;29.43;;;13.60;92.20;;;;;;5013694;28;20181;-89
2022/09/24 10:01:06;;;;;;;37.33;31.07;;;13.60;92.20;;;;;;5026845;28;20213;-93
2022/09/24 10:03:45;;;;;;;41.00;31.47;;;13.70;92.20;;;;;;5026330;28;20165;-93
2022/09/24 10:06:13;;;;;;;41.60;31.43;;;13.70;92.10;;;;;;5027406;28;20242;-93
2022/09/24 10:08:39;;;;;;;36.73;30.63;;;13.70;92.20;;;;;;5024561;28;20269;-93
2022/09/24 10:11:06;;;;;;;38.37;30.87;;;13.80;92.10;;;;;;5023816;28;20216;-92
2022/09/24 10:13:32;;;;;;;43.67;32.30;;;13.80;92.00;;;;;;5022915;28;20182;-93
2022/09/24 10:16:02;;;;;;;38.73;31.40;;;13.80;92.10;;;;;;5020969;28;20181;-92
2022/09/24 10:18:36;;;;;;;36.13;29.97;;;13.90;92.10;;;;;;5022329;28;20568;-93
2022/09/24 10:21:06;;;;;;;37.77;29.10;;;13.90;91.90;;;;;;5018195;28;20201;-92
2022/09/24 10:23:46;;;;;;;37.63;30.60;;;13.90;92.00;;;;;;5019526;28;20174;-93
2022/09/24 10:26:12;;;;;;;39.83;31.73;;;14.00;91.90;;;;;;5019079;28;20169;-93
2022/09/24 10:31:37;;;;;;;42.07;30.50;;;14.00;91.80;;;;;;5019203;28;20244;-93
2022/09/24 10:34:16;;;;;;;39.43;31.63;;;13.90;91.70;;;;;;5017963;28;20181;-93
2022/09/24 10:36:50;;;;;;;41.30;32.77;;;13.90;91.70;;;;;;5018190;28;20640;-93
2022/09/24 10:39:16;;;;;;;39.87;31.53;;;13.90;91.70;;;;;;5018665;28;20189;-92
2022/09/24 10:41:46;;;;;;;39.57;31.67;;;13.90;91.70;;;;;;5018539;28;20228;-93
2022/09/24 10:44:13;;;;;;;45.23;30.40;;;13.90;91.80;;;;;;5019714;28;20581;-92
2022/09/24 10:47:24;;;;;;;39.10;31.50;;;13.80;91.70;;;;;;5020506;28;20177;-92
2022/09/24 10:50:25;;;;;;;39.00;31.43;;;13.80;91.80;;;;;;4985329;28;20193;-94
2022/09/24 10:53:04;;;;;;;39.53;31.33;;;13.90;91.80;;;;;;5017071;28;20643;-93
2022/09/24 10:55:36;;;;;;;44.57;32.63;;;13.90;91.70;;;;;;5017547;28;20651;-93
2022/09/24 10:58:53;;;;;;;43.83;33.30;;;13.90;91.60;;;;;;5017334;28;20201;-92
2022/09/24 11:01:41;;;;;;;41.03;32.77;;;13.90;91.70;;;;;;4988140;28;20233;-92
2022/09/24 11:04:31;;;;;;;41.67;34.03;;;13.70;91.50;;;;;;5017846;28;20256;-92
2022/09/24 11:07:28;;;;;;;50.97;35.17;;;13.80;91.80;;;;;;5019764;28;20177;-90
2022/09/24 11:10:18;;;;;;;49.80;33.93;;;13.70;91.90;;;;;;5014761;28;20651;-89
2022/09/24 11:13:14;;;;;;;45.87;36.03;;;13.70;92.10;;;;;;5019996;28;20687;-87
2022/09/24 11:16:08;;;;;;;48.57;37.33;;;13.70;92.30;;;;;;4996036;28;20188;-88
2022/09/24 11:18:40;;;;;;;50.80;36.60;;;13.80;92.20;;;;;;5017086;28;20675;-88
2022/09/24 11:21:27;;;;;;;47.13;36.00;;;13.80;92.20;;;;;;5016376;28;20216;-89
2022/09/24 11:24:24;;;;;;;48.53;36.10;;;13.80;92.20;;;;;;5016453;28;20172;-89
2022/09/24 11:27:25;;;;;;;48.17;35.00;;;13.80;92.10;;;;;;5017057;28;20173;-90
2022/09/24 11:30:12;;;;;;;47.27;34.50;;;13.80;92.00;;;;;;5016629;28;20244;-90
2022/09/24 11:32:43;;;;;;;48.43;35.67;;;13.80;91.80;;;;;;5016106;28;20713;-89
2022/09/24 11:35:45;;;;;;;54.40;34.10;;;14.00;91.80;;;;;;5017156;28;20525;-89
2022/09/24 11:38:41;;;;;;;51.07;34.47;;;13.90;91.60;;;;;;5015854;28;20187;-88
2022/09/24 11:41:30;;;;;;;45.57;34.20;;;14.00;91.60;;;;;;5017259;28;20239;-88
2022/09/24 11:43:57;;;;;;;51.13;35.70;;;14.00;91.50;;;;;;5010626;28;20185;-91
2022/09/24 11:47:09;;;;;;;43.95;33.92;;;14.10;91.60;;;;;;5017545;28;20172;-89
2022/09/24 11:50:03;;;;;;;46.17;32.50;;;14.10;91.20;;;;;;5012587;28;20192;-89
2022/09/24 11:52:45;;;;;;;44.00;32.60;;;14.00;91.10;;;;;;5015866;28;20197;-91
2022/09/24 11:55:43;;;;;;;40.93;31.93;;;13.90;91.00;;;;;;5019909;28;20165;-91
2022/09/24 11:58:23;;;;;;;44.80;32.60;;;14.00;91.20;;;;;;5010210;28;20185;-86
2022/09/24 12:00:54;;;;;;;43.93;33.40;;;14.00;91.10;;;;;;5017419;28;20185;-86
2022/09/24 12:03:38;;;;;;;46.60;33.97;;;14.00;91.10;;;;;;5017324;28;20245;-87
2022/09/24 12:06:16;;;;;;;47.60;34.43;;;14.00;90.90;;;;;;5017757;28;20168;-87
2022/09/24 12:08:51;;;;;;;44.33;33.63;;;13.90;90.90;;;;;;5016101;28;20636;-87
2022/09/24 12:11:35;;;;;;;48.73;37.23;;;14.00;91.00;;;;;;5017263;28;20196;-87
2022/09/24 12:14:11;;;;;;;45.57;35.53;;;13.90;91.00;;;;;;5017454;28;20252;-87
2022/09/24 12:16:39;;;;;;;48.47;37.20;;;14.00;91.00;;;;;;5016686;28;20184;-88
2022/09/24 12:19:14;;;;;;;46.57;35.97;;;14.00;91.20;;;;;;5017295;28;20172;-87
2022/09/24 12:21:42;;;;;;;49.27;36.60;;;14.10;91.10;;;;;;5016610;28;20652;-87
2022/09/24 12:24:27;;;;;;;50.90;37.13;;;14.10;91.00;;;;;;5015904;28;20526;-87
2022/09/24 12:26:57;;;;;;;49.33;36.90;;;14.00;91.00;;;;;;5017132;28;20157;-87
2022/09/24 12:32:55;;;;;;;47.97;35.90;;;14.30;91.20;;;;;;5018173;28;20226;-88
2022/09/24 12:35:33;;;;;;;47.40;35.30;;;14.10;90.90;;;;;;5015809;28;20212;-87
2022/09/24 12:38:06;;;;;;;45.60;35.97;;;14.10;91.00;;;;;;5017458;28;20154;-86
2022/09/24 12:41:28;;;;;;;42.83;34.90;;;14.30;91.10;;;;;;5015694;28;20284;-87
2022/09/24 12:44:09;;;;;;;46.60;35.57;;;14.20;90.80;;;;;;4976281;28;20661;-87
2022/09/24 12:46:46;;;;;;;43.53;34.47;;;14.30;90.70;;;;;;4959800;28;20167;-89
2022/09/24 12:49:24;;;;;;;43.80;35.70;;;14.30;90.70;;;;;;5003238;28;20239;-88
2022/09/24 12:51:56;;;;;;;48.93;34.13;;;14.30;90.80;;;;;;5015998;28;20292;-87
2022/09/24 12:54:36;;;;;;;48.20;36.60;;;14.40;90.80;;;;;;5015954;28;20169;-88
2022/09/24 12:57:23;;;;;;;44.35;36.22;;;14.30;90.80;;;;;;5015695;28;20188;-92
2022/09/24 12:59:58;;;;;;;49.27;36.60;;;14.30;90.80;;;;;;5016388;28;20651;-91
2022/09/24 13:02:31;;;;;;;46.17;35.05;;;14.30;91.00;;;;;;5016076;28;20199;-92
2022/09/24 13:05:00;;;;;;;45.63;36.07;;;14.40;91.20;;;;;;5015154;28;20166;-91
2022/09/24 13:07:38;;;;;;;50.23;37.03;;;14.40;91.10;;;;;;5016369;28;20197;-92
2022/09/24 13:10:16;;;;;;;44.43;33.90;;;14.30;90.90;;;;;;5016348;28;20209;-92
2022/09/24 13:12:42;;;;;;;45.17;33.90;;;14.40;91.10;;;;;;5015038;28;20197;-93